Thomas, New Mexico
Current Conditions -  °F | °C
As of 7:55 AM on Sunday 23 Nov 2014 (Local Time) from KCAO Reporting Station
Overcast Overcast  
Wind Chill: 34°   Ceiling: 10000
Heat Index: 43°   Visibility: 10mi
Dew Point: 28°   Wind: 23mph
Humidity: 56%   Direction: 350°N
Pressure: 29.65"   Gusts: 38mph
Location:  36.2639°N, 103.376°W
Report Text: KCAO 231455Z AUTO 35020G33KT 10SM OVC100 06/M02 A2965 RMK AO2 PK WND 01036/1403 SLP023 T00611022 51039
Loading
Personal Weather Stations






























Interactive Weather Map New forecast layout! Learn more

10-Day Weather Forecast

Advertisements
Track Severe Weather on mobile